Time;durP1;ratioP1;P1;durP2;ratioP2;P2;SDS_P1;SDS_P2;PMS_P1;PMS_P2;Temp;Humidity;BMP_temperature;BMP_pressure;BME280_temperature;BME280_humidity;BME280_pressure;Samples;Min_cycle;Max_cycle;Signal;HPM_P1;HPM_P2
2022/05/10 00:01:22;;;;;;;5.80;4.43;;;;;;;;;;5053892;28;20415;-81
2022/05/10 00:03:48;;;;;;;4.33;4.17;;;;;;;;;;5051982;28;20434;-80
2022/05/10 00:06:15;;;;;;;4.63;4.50;;;;;;;;;;5052696;28;20414;-76
2022/05/10 00:08:41;;;;;;;4.60;4.50;;;;;;;;;;5053146;28;20976;-78
2022/05/10 00:11:09;;;;;;;5.40;5.10;;;;;;;;;;5053533;28;20985;-79
2022/05/10 00:13:35;;;;;;;4.87;4.70;;;;;;;;;;5053448;28;20520;-80
2022/05/10 00:16:01;;;;;;;5.30;5.00;;;;;;;;;;5053104;28;20425;-80
2022/05/10 00:18:28;;;;;;;4.90;4.60;;;;;;;;;;5053331;28;20406;-81
2022/05/10 00:20:54;;;;;;;5.20;5.00;;;;;;;;;;5053365;28;20434;-78
2022/05/10 00:23:20;;;;;;;5.43;5.03;;;;;;;;;;5053750;28;20428;-80
2022/05/10 00:25:46;;;;;;;4.73;4.53;;;;;;;;;;5052897;28;20426;-79
2022/05/10 00:28:12;;;;;;;5.13;4.73;;;;;;;;;;5053365;28;20422;-78
2022/05/10 00:30:38;;;;;;;4.40;4.20;;;;;;;;;;5053553;28;20932;-78
2022/05/10 00:33:04;;;;;;;5.30;5.10;;;;;;;;;;5053076;28;20462;-80
2022/05/10 00:35:31;;;;;;;5.37;5.20;;;;;;;;;;5053576;28;20472;-72
2022/05/10 00:38:01;;;;;;;5.20;4.90;;;;;;;;;;5053147;28;20442;-74
2022/05/10 00:40:29;;;;;;;6.00;4.87;;;;;;;;;;5052992;28;20422;-79
2022/05/10 00:43:01;;;;;;;6.40;6.00;;;;;;;;;;5053157;28;20407;-80
2022/05/10 00:45:35;;;;;;;5.40;5.10;;;;;;;;;;5051447;28;20971;-80
2022/05/10 00:48:07;;;;;;;5.00;4.90;;;;;;;;;;5053101;28;20442;-79
2022/05/10 00:50:36;;;;;;;6.40;5.90;;;;;;;;;;5053156;28;20478;-78
2022/05/10 00:53:06;;;;;;;5.20;4.83;;;;;;;;;;5052710;28;20454;-81
2022/05/10 00:55:36;;;;;;;5.47;5.07;;;;;;;;;;5056702;28;20754;-80
2022/05/10 00:58:10;;;;;;;4.70;4.60;;;;;;;;;;5057081;28;20406;-81
2022/05/10 01:00:38;;;;;;;4.80;4.70;;;;;;;;;;5055508;28;20484;-80
2022/05/10 01:03:08;;;;;;;4.67;4.47;;;;;;;;;;5057329;28;20407;-79
2022/05/10 01:05:36;;;;;;;5.17;5.07;;;;;;;;;;5057114;28;20402;-79
2022/05/10 01:08:14;;;;;;;4.80;4.60;;;;;;;;;;5056555;28;20415;-80
2022/05/10 01:10:50;;;;;;;5.90;5.60;;;;;;;;;;5056543;28;20512;-76
2022/05/10 01:13:33;;;;;;;4.80;4.60;;;;;;;;;;5056477;28;20461;-81
2022/05/10 01:16:02;;;;;;;5.37;4.90;;;;;;;;;;5055311;28;20826;-80
2022/05/10 01:18:28;;;;;;;5.20;4.90;;;;;;;;;;5056759;28;20439;-78
2022/05/10 01:20:56;;;;;;;5.50;5.20;;;;;;;;;;5056452;28;20902;-78
2022/05/10 01:23:40;;;;;;;5.97;5.73;;;;;;;;;;5056561;28;20414;-78
2022/05/10 01:26:13;;;;;;;5.77;5.50;;;;;;;;;;5056665;28;20447;-77
2022/05/10 01:28:42;;;;;;;5.93;5.63;;;;;;;;;;5056656;28;20398;-74
2022/05/10 01:31:12;;;;;;;5.43;5.23;;;;;;;;;;5056198;28;20425;-80
2022/05/10 01:33:48;;;;;;;6.23;4.93;;;;;;;;;;5056142;28;21120;-80
2022/05/10 01:36:26;;;;;;;5.77;5.47;;;;;;;;;;5054819;28;20406;-78
2022/05/10 01:38:56;;;;;;;5.70;5.37;;;;;;;;;;5055963;28;20449;-79
2022/05/10 01:41:28;;;;;;;5.80;5.50;;;;;;;;;;5056300;28;20769;-80
2022/05/10 01:44:06;;;;;;;6.20;5.63;;;;;;;;;;5055945;28;20781;-78
2022/05/10 01:46:32;;;;;;;5.23;5.03;;;;;;;;;;5055855;28;20426;-76
2022/05/10 01:49:07;;;;;;;5.70;5.50;;;;;;;;;;5056116;28;20419;-75
2022/05/10 01:51:37;;;;;;;5.17;4.97;;;;;;;;;;5055693;28;20496;-81
2022/05/10 01:54:03;;;;;;;5.30;4.90;;;;;;;;;;5055907;28;20474;-79
2022/05/10 01:56:29;;;;;;;4.53;4.33;;;;;;;;;;5056070;28;20914;-78
2022/05/10 01:58:55;;;;;;;5.60;5.40;;;;;;;;;;5056072;28;20907;-80
2022/05/10 02:01:33;;;;;;;7.03;6.27;;;;;;;;;;5055870;28;20903;-80
2022/05/10 02:04:08;;;;;;;5.07;4.67;;;;;;;;;;5055795;28;20429;-78
2022/05/10 02:06:40;;;;;;;5.27;5.10;;;;;;;;;;5055350;28;20529;-80
2022/05/10 02:09:10;;;;;;;4.97;4.77;;;;;;;;;;5055354;28;20425;-79
2022/05/10 02:11:39;;;;;;;4.90;4.70;;;;;;;;;;5055800;28;20933;-80
2022/05/10 02:14:10;;;;;;;5.10;4.90;;;;;;;;;;5055368;28;20523;-79
2022/05/10 02:16:42;;;;;;;4.80;4.63;;;;;;;;;;5053994;28;20411;-75
2022/05/10 02:19:11;;;;;;;5.60;5.30;;;;;;;;;;5055337;28;20465;-73
2022/05/10 02:21:41;;;;;;;6.03;5.63;;;;;;;;;;5055261;28;20442;-80
2022/05/10 02:24:13;;;;;;;5.23;5.03;;;;;;;;;;5055204;28;20422;-80
2022/05/10 02:26:43;;;;;;;5.77;5.33;;;;;;;;;;5055232;28;20894;-81
2022/05/10 02:29:38;;;;;;;4.90;4.77;;;;;;;;;;5055100;28;20429;-80
2022/05/10 02:34:54;;;;;;;5.30;5.03;;;;;;;;;;5055191;28;20508;-80
2022/05/10 02:37:20;;;;;;;4.37;4.30;;;;;;;;;;5054927;28;20410;-80
2022/05/10 02:39:46;;;;;;;5.27;5.07;;;;;;;;;;5054946;28;20433;-79
2022/05/10 02:42:13;;;;;;;5.80;5.30;;;;;;;;;;5054965;28;20418;-79
2022/05/10 02:44:39;;;;;;;5.60;5.30;;;;;;;;;;5055049;28;20414;-80
2022/05/10 02:47:06;;;;;;;5.33;5.13;;;;;;;;;;5054606;28;20802;-79
2022/05/10 02:49:33;;;;;;;6.77;6.37;;;;;;;;;;5054900;28;20494;-78
2022/05/10 02:51:59;;;;;;;5.37;5.17;;;;;;;;;;5054449;28;20469;-78
2022/05/10 02:54:25;;;;;;;5.70;5.40;;;;;;;;;;5054467;28;20469;-80
2022/05/10 02:56:52;;;;;;;8.13;5.50;;;;;;;;;;5054591;28;20413;-79
2022/05/10 02:59:21;;;;;;;7.20;5.97;;;;;;;;;;5054589;28;20422;-78
2022/05/10 03:02:12;;;;;;;5.53;5.33;;;;;;;;;;5054493;28;20409;-75
2022/05/10 03:04:43;;;;;;;5.77;5.23;;;;;;;;;;5054640;28;20413;-79
2022/05/10 03:07:10;;;;;;;6.27;5.87;;;;;;;;;;5054335;28;20418;-78
2022/05/10 03:09:36;;;;;;;4.93;4.73;;;;;;;;;;5054635;28;20438;-74
2022/05/10 03:12:06;;;;;;;5.70;5.40;;;;;;;;;;5054327;28;20423;-80
2022/05/10 03:14:32;;;;;;;5.43;5.10;;;;;;;;;;5054059;28;20974;-80
2022/05/10 03:16:58;;;;;;;6.57;5.40;;;;;;;;;;5053534;28;20955;-76
2022/05/10 03:19:24;;;;;;;8.47;5.50;;;;;;;;;;5054074;28;20415;-80
2022/05/10 03:21:50;;;;;;;6.07;5.73;;;;;;;;;;5054272;28;20492;-79
2022/05/10 03:24:16;;;;;;;5.87;5.57;;;;;;;;;;5054349;28;20756;-80
2022/05/10 03:26:49;;;;;;;5.17;4.83;;;;;;;;;;5054302;28;20406;-80
2022/05/10 03:29:16;;;;;;;5.60;5.30;;;;;;;;;;5054150;28;20434;-80
2022/05/10 03:31:42;;;;;;;5.33;5.17;;;;;;;;;;5054033;28;20407;-79
2022/05/10 03:36:52;;;;;;;6.43;6.00;;;;;;;;;;5054491;28;20809;-81
2022/05/10 03:39:18;;;;;;;7.50;5.63;;;;;;;;;;5053963;28;20418;-79
2022/05/10 03:41:44;;;;;;;5.13;5.03;;;;;;;;;;5054075;28;20882;-78
2022/05/10 03:44:10;;;;;;;10.43;5.20;;;;;;;;;;5053828;28;20568;-80
2022/05/10 03:46:36;;;;;;;6.00;5.13;;;;;;;;;;5053523;28;20421;-76
2022/05/10 03:49:03;;;;;;;5.40;5.20;;;;;;;;;;5053741;28;20422;-75
2022/05/10 03:51:29;;;;;;;5.40;5.20;;;;;;;;;;5053455;28;20470;-79
2022/05/10 03:53:55;;;;;;;5.47;5.27;;;;;;;;;;5053429;28;20477;-77
2022/05/10 03:56:21;;;;;;;5.30;4.80;;;;;;;;;;5053691;28;20422;-78
2022/05/10 03:58:48;;;;;;;7.23;5.57;;;;;;;;;;5053842;28;20817;-75
2022/05/10 04:01:14;;;;;;;6.07;5.77;;;;;;;;;;5053388;28;20419;-75
2022/05/10 04:03:40;;;;;;;7.83;7.40;;;;;;;;;;5053826;28;20468;-79
2022/05/10 04:06:06;;;;;;;6.37;6.03;;;;;;;;;;5053108;28;20415;-78
2022/05/10 04:08:32;;;;;;;14.10;5.63;;;;;;;;;;5053398;28;20503;-80
2022/05/10 04:11:16;;;;;;;7.00;6.47;;;;;;;;;;5053263;28;20455;-78
2022/05/10 04:13:43;;;;;;;6.90;6.40;;;;;;;;;;5053435;28;20474;-80
2022/05/10 04:16:09;;;;;;;9.30;6.87;;;;;;;;;;5052903;28;20425;-80
2022/05/10 04:18:35;;;;;;;8.33;7.50;;;;;;;;;;5052901;28;20423;-80
2022/05/10 04:21:01;;;;;;;8.23;7.70;;;;;;;;;;5053411;28;20425;-75
2022/05/10 04:23:27;;;;;;;6.77;6.17;;;;;;;;;;5053030;28;20457;-79
2022/05/10 04:25:53;;;;;;;6.97;6.67;;;;;;;;;;5053045;28;20422;-75
2022/05/10 04:28:19;;;;;;;8.47;7.30;;;;;;;;;;5052969;28;20426;-78
2022/05/10 04:30:45;;;;;;;7.60;6.93;;;;;;;;;;5053062;28;20422;-79
2022/05/10 04:33:11;;;;;;;10.13;6.87;;;;;;;;;;5052775;28;20988;-80
2022/05/10 04:35:37;;;;;;;6.37;6.07;;;;;;;;;;5053094;28;20426;-79
2022/05/10 04:38:04;;;;;;;9.17;6.17;;;;;;;;;;5052849;28;20411;-79
2022/05/10 04:43:15;;;;;;;5.00;4.80;;;;;;;;;;5053126;28;20441;-75
2022/05/10 04:45:41;;;;;;;8.70;7.00;;;;;;;;;;5052976;28;20897;-78
2022/05/10 04:48:07;;;;;;;9.13;7.83;;;;;;;;;;5053159;28;20460;-74
2022/05/10 04:50:33;;;;;;;6.60;6.20;;;;;;;;;;5052566;28;20473;-74
2022/05/10 04:53:00;;;;;;;6.90;6.40;;;;;;;;;;5052991;28;20453;-73
2022/05/10 04:55:26;;;;;;;8.20;6.63;;;;;;;;;;5053177;28;20525;-75
2022/05/10 04:57:52;;;;;;;7.83;7.30;;;;;;;;;;5052856;28;20836;-78
2022/05/10 05:00:18;;;;;;;10.93;6.20;;;;;;;;;;5052583;28;20929;-76
2022/05/10 05:02:46;;;;;;;6.90;6.30;;;;;;;;;;5053265;28;20471;-76
2022/05/10 05:05:12;;;;;;;6.63;6.30;;;;;;;;;;5052799;28;20434;-78
2022/05/10 05:07:38;;;;;;;8.47;7.67;;;;;;;;;;5052914;28;20415;-80
2022/05/10 05:10:04;;;;;;;9.47;7.70;;;;;;;;;;5052648;28;20769;-77
2022/05/10 05:12:32;;;;;;;6.90;6.40;;;;;;;;;;5052709;28;20497;-80
2022/05/10 05:14:59;;;;;;;7.83;7.23;;;;;;;;;;5052470;28;20977;-78
2022/05/10 05:17:25;;;;;;;8.37;7.77;;;;;;;;;;5051238;28;20422;-77
2022/05/10 05:19:51;;;;;;;8.03;7.10;;;;;;;;;;5052514;28;20780;-77
2022/05/10 05:22:16;;;;;;;8.47;7.90;;;;;;;;;;5052820;28;20410;-77
2022/05/10 05:24:42;;;;;;;9.30;8.20;;;;;;;;;;5052571;28;20426;-78
2022/05/10 05:27:09;;;;;;;7.90;7.30;;;;;;;;;;5052423;28;20427;-77
2022/05/10 05:29:35;;;;;;;12.57;7.60;;;;;;;;;;5052936;28;20879;-78
2022/05/10 05:32:03;;;;;;;8.57;7.90;;;;;;;;;;5052123;28;20464;-79
2022/05/10 05:34:29;;;;;;;9.03;8.20;;;;;;;;;;5052412;28;20470;-78
2022/05/10 05:39:40;;;;;;;8.93;7.63;;;;;;;;;;5053556;28;20397;-78
2022/05/10 05:42:06;;;;;;;8.00;7.50;;;;;;;;;;5055885;28;20468;-74
2022/05/10 05:44:32;;;;;;;12.43;7.70;;;;;;;;;;5056073;28;20909;-79
2022/05/10 05:46:58;;;;;;;8.63;7.03;;;;;;;;;;5056179;28;20508;-79
2022/05/10 05:49:26;;;;;;;9.00;8.30;;;;;;;;;;5056116;28;20461;-80
2022/05/10 05:51:55;;;;;;;8.63;7.90;;;;;;;;;;5055620;28;20454;-77
2022/05/10 05:54:21;;;;;;;8.80;8.07;;;;;;;;;;5055509;28;20544;-80
2022/05/10 05:56:47;;;;;;;13.67;7.17;;;;;;;;;;5055937;28;20444;-80
2022/05/10 05:59:13;;;;;;;9.00;8.10;;;;;;;;;;5055872;28;20437;-81
2022/05/10 06:01:39;;;;;;;9.43;8.53;;;;;;;;;;5055924;28;20453;-80
2022/05/10 06:04:05;;;;;;;8.17;7.53;;;;;;;;;;5054279;28;20423;-82
2022/05/10 06:06:31;;;;;;;12.43;8.07;;;;;;;;;;5054217;28;20435;-81
2022/05/10 06:08:57;;;;;;;8.57;7.87;;;;;;;;;;5055622;28;20426;-80
2022/05/10 06:11:23;;;;;;;9.07;8.37;;;;;;;;;;5055286;28;20446;-79
2022/05/10 06:13:49;;;;;;;8.03;7.60;;;;;;;;;;5055454;28;20477;-80
2022/05/10 06:16:15;;;;;;;11.80;8.50;;;;;;;;;;5055252;28;20493;-81
2022/05/10 06:18:42;;;;;;;10.10;9.40;;;;;;;;;;5053923;28;20794;-81
2022/05/10 06:21:08;;;;;;;8.77;8.07;;;;;;;;;;5055502;28;20417;-80
2022/05/10 06:23:34;;;;;;;9.73;8.10;;;;;;;;;;5055332;28;20883;-80
2022/05/10 06:26:00;;;;;;;8.47;7.67;;;;;;;;;;5055377;28;20493;-81
2022/05/10 06:28:29;;;;;;;9.23;8.40;;;;;;;;;;5054998;28;20456;-81
2022/05/10 06:30:56;;;;;;;10.30;7.90;;;;;;;;;;5054968;28;20427;-81
2022/05/10 06:33:22;;;;;;;9.17;8.27;;;;;;;;;;5054972;28;20607;-81
2022/05/10 06:35:48;;;;;;;8.97;8.13;;;;;;;;;;5054859;28;20449;-82
2022/05/10 06:38:19;;;;;;;9.20;8.60;;;;;;;;;;5054754;28;20487;-82
2022/05/10 06:40:45;;;;;;;9.03;8.20;;;;;;;;;;5055213;28;20399;-75
2022/05/10 06:43:12;;;;;;;10.03;8.40;;;;;;;;;;5055091;28;20418;-80
2022/05/10 06:45:39;;;;;;;8.60;8.00;;;;;;;;;;5055040;28;20426;-76
2022/05/10 06:48:05;;;;;;;9.70;7.63;;;;;;;;;;5054775;28;20414;-80
2022/05/10 06:50:32;;;;;;;11.33;8.00;;;;;;;;;;5053066;28;20898;-74
2022/05/10 06:52:58;;;;;;;8.07;7.57;;;;;;;;;;5054073;28;20411;-76
2022/05/10 06:55:25;;;;;;;8.40;7.43;;;;;;;;;;5054872;28;20426;-77
2022/05/10 06:57:52;;;;;;;10.13;7.37;;;;;;;;;;5054561;28;20513;-81
2022/05/10 07:00:18;;;;;;;8.30;7.50;;;;;;;;;;5054421;28;20514;-83
2022/05/10 07:02:44;;;;;;;6.60;6.13;;;;;;;;;;5054464;28;20438;-81
2022/05/10 07:05:11;;;;;;;7.50;6.87;;;;;;;;;;5054926;28;20417;-80
2022/05/10 07:07:37;;;;;;;6.80;6.40;;;;;;;;;;5054624;28;20509;-81
2022/05/10 07:10:08;;;;;;;8.50;7.80;;;;;;;;;;5054392;28;20419;-82
2022/05/10 07:12:34;;;;;;;11.40;8.23;;;;;;;;;;5054800;28;20767;-81
2022/05/10 07:15:00;;;;;;;12.20;8.10;;;;;;;;;;5054391;28;20469;-83
2022/05/10 07:17:26;;;;;;;12.70;7.70;;;;;;;;;;5054210;28;20426;-79
2022/05/10 07:19:52;;;;;;;12.43;8.33;;;;;;;;;;5052917;28;20453;-82
2022/05/10 07:22:18;;;;;;;10.50;9.10;;;;;;;;;;5054030;28;20413;-83
2022/05/10 07:27:48;;;;;;;8.57;7.77;;;;;;;;;;5053968;28;20178;-80
2022/05/10 07:30:14;;;;;;;7.73;7.33;;;;;;;;;;5053940;28;20422;-86
2022/05/10 07:32:40;;;;;;;8.67;7.83;;;;;;;;;;5054116;28;20426;-80
2022/05/10 07:35:07;;;;;;;8.23;7.57;;;;;;;;;;5054050;28;20478;-74
2022/05/10 07:37:34;;;;;;;11.60;8.57;;;;;;;;;;5053773;28;20902;-81
2022/05/10 07:40:00;;;;;;;10.67;8.00;;;;;;;;;;5053825;28;20914;-81
2022/05/10 07:42:26;;;;;;;11.10;8.10;;;;;;;;;;5054043;28;20785;-78
2022/05/10 07:44:52;;;;;;;8.30;7.50;;;;;;;;;;5054062;28;20957;-78
2022/05/10 07:47:18;;;;;;;14.03;8.20;;;;;;;;;;5054175;28;20446;-81
2022/05/10 07:49:45;;;;;;;7.77;6.97;;;;;;;;;;5053792;28;20414;-81
2022/05/10 07:52:11;;;;;;;8.63;7.93;;;;;;;;;;5053990;28;20426;-78
2022/05/10 07:54:38;;;;;;;9.13;8.33;;;;;;;;;;5053394;28;20481;-80
2022/05/10 07:57:04;;;;;;;8.90;8.20;;;;;;;;;;5053743;28;20433;-80
2022/05/10 07:59:31;;;;;;;9.53;8.40;;;;;;;;;;5053794;28;20430;-78
2022/05/10 08:01:57;;;;;;;9.17;8.27;;;;;;;;;;5053573;28;20513;-82
2022/05/10 08:04:23;;;;;;;17.57;7.43;;;;;;;;;;5053170;28;20427;-78
2022/05/10 08:06:50;;;;;;;9.03;7.80;;;;;;;;;;5053035;28;20426;-80
2022/05/10 08:09:16;;;;;;;8.90;8.03;;;;;;;;;;5053737;28;20898;-77
2022/05/10 08:11:43;;;;;;;14.03;7.93;;;;;;;;;;5053705;28;20456;-77
2022/05/10 08:14:10;;;;;;;9.40;8.40;;;;;;;;;;5052952;28;20478;-80
2022/05/10 08:16:36;;;;;;;9.47;8.67;;;;;;;;;;5053024;28;20795;-74
2022/05/10 08:19:02;;;;;;;9.23;8.47;;;;;;;;;;5053501;28;20422;-81
2022/05/10 08:21:28;;;;;;;10.07;8.50;;;;;;;;;;5053305;28;20418;-81
2022/05/10 08:23:55;;;;;;;9.33;8.30;;;;;;;;;;5053197;28;20887;-70
2022/05/10 08:26:21;;;;;;;8.73;7.90;;;;;;;;;;5053271;28;20421;-79
2022/05/10 08:28:47;;;;;;;9.33;8.63;;;;;;;;;;5051617;28;20427;-78
2022/05/10 08:31:13;;;;;;;9.67;8.87;;;;;;;;;;5053141;28;20423;-77
2022/05/10 08:33:41;;;;;;;15.10;9.00;;;;;;;;;;5052717;28;20889;-71
2022/05/10 08:36:10;;;;;;;10.60;9.80;;;;;;;;;;5052915;28;20473;-72
2022/05/10 08:38:36;;;;;;;9.47;8.70;;;;;;;;;;5053373;28;20770;-75
2022/05/10 08:41:23;;;;;;;12.33;9.40;;;;;;;;;;5053181;28;20900;-77
2022/05/10 08:43:51;;;;;;;11.17;9.67;;;;;;;;;;5052859;28;20584;-78
2022/05/10 08:46:19;;;;;;;10.57;9.50;;;;;;;;;;5052794;28;20418;-77
2022/05/10 08:48:46;;;;;;;8.70;8.20;;;;;;;;;;5053568;28;21046;-79
2022/05/10 08:51:13;;;;;;;9.00;8.40;;;;;;;;;;5051293;28;20568;-83
2022/05/10 08:53:39;;;;;;;8.57;7.97;;;;;;;;;;5053097;28;20469;-79
2022/05/10 08:56:09;;;;;;;8.77;7.77;;;;;;;;;;5053022;28;20419;-78
2022/05/10 08:58:54;;;;;;;8.83;6.93;;;;;;;;;;5053890;28;20446;-77
2022/05/10 09:01:22;;;;;;;10.03;7.80;;;;;;;;;;5052747;28;20410;-82
2022/05/10 09:03:54;;;;;;;9.97;6.50;;;;;;;;;;5052638;28;20452;-81
2022/05/10 09:06:34;;;;;;;8.43;7.80;;;;;;;;;;5052885;28;20438;-78
2022/05/10 09:09:03;;;;;;;7.20;6.70;;;;;;;;;;5052866;28;20426;-78
2022/05/10 09:11:34;;;;;;;8.87;6.73;;;;;;;;;;5052691;28;20797;-84
2022/05/10 09:14:00;;;;;;;6.50;6.20;;;;;;;;;;5052775;28;20983;-79
2022/05/10 09:16:26;;;;;;;9.07;8.40;;;;;;;;;;5056671;28;20421;-80
2022/05/10 09:18:53;;;;;;;7.90;7.10;;;;;;;;;;5056836;28;20782;-81
2022/05/10 09:21:19;;;;;;;7.83;7.33;;;;;;;;;;5056604;28;20422;-78
2022/05/10 09:23:48;;;;;;;8.03;5.67;;;;;;;;;;5056644;28;20890;-78
2022/05/10 09:26:15;;;;;;;7.77;7.17;;;;;;;;;;5056581;28;20509;-75
2022/05/10 09:28:47;;;;;;;9.17;6.67;;;;;;;;;;5056596;28;20464;-75
2022/05/10 09:37:10;;;;;;;6.73;6.13;;;;;;;;;;5056427;28;20406;-78
2022/05/10 09:39:36;;;;;;;12.70;6.13;;;;;;;;;;5056341;28;20897;-80
2022/05/10 09:42:02;;;;;;;12.03;6.93;;;;;;;;;;5056078;28;20406;-81
2022/05/10 09:44:29;;;;;;;13.40;7.00;;;;;;;;;;5056061;28;20439;-79
2022/05/10 09:47:12;;;;;;;6.83;6.33;;;;;;;;;;5056534;28;20787;-79
2022/05/10 09:49:39;;;;;;;14.37;6.30;;;;;;;;;;5056033;28;20406;-80
2022/05/10 09:52:06;;;;;;;6.57;6.17;;;;;;;;;;5055674;28;20545;-79
2022/05/10 09:54:37;;;;;;;8.63;6.70;;;;;;;;;;5055992;28;20470;-76
2022/05/10 09:57:04;;;;;;;6.20;5.80;;;;;;;;;;5055914;28;20414;-77
2022/05/10 09:59:37;;;;;;;5.67;5.27;;;;;;;;;;5055789;28;20906;-80
2022/05/10 10:02:04;;;;;;;7.70;6.87;;;;;;;;;;5055965;28;20425;-80
2022/05/10 10:04:33;;;;;;;7.43;6.00;;;;;;;;;;5055815;28;20434;-79
2022/05/10 10:07:05;;;;;;;6.77;6.10;;;;;;;;;;5055767;28;20509;-78
2022/05/10 10:09:32;;;;;;;5.40;4.90;;;;;;;;;;5055785;28;20521;-72
2022/05/10 10:11:58;;;;;;;5.30;5.00;;;;;;;;;;5055752;28;20441;-77
2022/05/10 10:14:41;;;;;;;4.70;4.40;;;;;;;;;;5055635;28;20470;-74
2022/05/10 10:17:16;;;;;;;7.80;5.73;;;;;;;;;;5055327;28;20814;-77
2022/05/10 10:19:44;;;;;;;5.23;4.90;;;;;;;;;;5055618;28;20386;-75
2022/05/10 10:22:30;;;;;;;4.80;4.60;;;;;;;;;;5055236;28;20428;-75
2022/05/10 10:25:02;;;;;;;5.20;4.80;;;;;;;;;;5055429;28;20411;-78
2022/05/10 10:27:28;;;;;;;5.70;5.20;;;;;;;;;;5055287;28;20460;-79
2022/05/10 10:29:57;;;;;;;8.13;7.47;;;;;;;;;;5053667;28;20414;-79
2022/05/10 10:32:32;;;;;;;7.60;6.97;;;;;;;;;;5054965;28;20434;-79
2022/05/10 10:35:11;;;;;;;6.60;5.97;;;;;;;;;;5054081;28;20859;-81
2022/05/10 10:37:42;;;;;;;4.80;4.60;;;;;;;;;;5054983;28;20164;-77
2022/05/10 10:40:27;;;;;;;7.13;5.40;;;;;;;;;;5055166;28;20490;-76
2022/05/10 10:43:12;;;;;;;5.00;4.80;;;;;;;;;;5054788;28;20415;-78
2022/05/10 10:45:40;;;;;;;4.17;3.97;;;;;;;;;;5055494;28;20760;-73
2022/05/10 10:48:09;;;;;;;4.47;4.37;;;;;;;;;;5054538;28;20422;-73
2022/05/10 10:50:36;;;;;;;4.27;4.07;;;;;;;;;;5054671;28;20470;-73
2022/05/10 10:53:05;;;;;;;4.53;4.20;;;;;;;;;;5054518;28;20441;-76
2022/05/10 10:55:43;;;;;;;4.37;4.17;;;;;;;;;;5054779;28;20434;-75
2022/05/10 10:58:09;;;;;;;4.07;3.97;;;;;;;;;;5054545;28;20414;-73
2022/05/10 11:00:41;;;;;;;3.30;3.30;;;;;;;;;;5054471;28;20425;-74
2022/05/10 11:03:25;;;;;;;4.47;4.27;;;;;;;;;;5054691;28;20506;-79
2022/05/10 11:06:04;;;;;;;3.73;3.53;;;;;;;;;;5054257;28;20565;-73
2022/05/10 11:08:38;;;;;;;4.00;3.80;;;;;;;;;;5054622;28;20876;-78
2022/05/10 11:11:13;;;;;;;3.80;3.60;;;;;;;;;;5054887;28;20413;-73
2022/05/10 11:13:45;;;;;;;3.70;3.60;;;;;;;;;;5054594;28;20476;-71
2022/05/10 11:16:23;;;;;;;5.03;3.80;;;;;;;;;;5052753;28;20977;-72
2022/05/10 11:19:07;;;;;;;3.47;3.37;;;;;;;;;;5054253;28;20482;-74
2022/05/10 11:21:52;;;;;;;3.20;3.20;;;;;;;;;;5053856;28;20472;-78
2022/05/10 11:24:21;;;;;;;3.00;3.00;;;;;;;;;;5054066;28;20422;-74
2022/05/10 11:26:56;;;;;;;3.60;3.60;;;;;;;;;;5054024;28;20406;-78
2022/05/10 11:29:37;;;;;;;3.47;3.37;;;;;;;;;;5054253;28;20418;-77
2022/05/10 11:32:14;;;;;;;3.17;2.97;;;;;;;;;;5053996;28;20399;-74
2022/05/10 11:34:43;;;;;;;4.53;4.10;;;;;;;;;;5052554;28;20474;-78
2022/05/10 11:37:12;;;;;;;3.60;3.50;;;;;;;;;;5051871;28;20430;-72
2022/05/10 11:39:58;;;;;;;3.50;3.30;;;;;;;;;;5054038;28;20427;-74
2022/05/10 11:42:32;;;;;;;5.23;3.73;;;;;;;;;;5050473;28;20437;-76
2022/05/10 11:45:17;;;;;;;3.27;3.27;;;;;;;;;;5053886;28;20509;-77
2022/05/10 11:48:09;;;;;;;8.93;4.40;;;;;;;;;;5053564;28;20414;-71
2022/05/10 11:51:38;;;;;;;3.70;3.50;;;;;;;;;;5044903;28;20491;-73
2022/05/10 11:53:46;;;;;;;3.50;3.20;;;;;;;;;;5053062;28;21069;-78
2022/05/10 11:56:13;;;;;;;7.33;3.00;;;;;;;;;;5053316;28;20440;-78
2022/05/10 11:58:39;;;;;;;3.80;3.60;;;;;;;;;;5053656;28;20509;-76
2022/05/10 12:01:11;;;;;;;4.90;3.43;;;;;;;;;;5053061;28;20426;-77
2022/05/10 12:03:37;;;;;;;3.03;3.03;;;;;;;;;;5052165;28;20492;-76
2022/05/10 12:06:22;;;;;;;7.47;3.37;;;;;;;;;;5053419;28;20422;-73
2022/05/10 12:08:49;;;;;;;4.00;3.63;;;;;;;;;;5053441;28;20416;-76
2022/05/10 12:11:34;;;;;;;12.67;3.50;;;;;;;;;;5053409;28;20488;-80
2022/05/10 12:22:45;;;;;;;2.50;2.40;;;;;;;;;;5053125;28;20928;-76
2022/05/10 12:25:31;;;;;;;3.13;3.07;;;;;;;;;;5053185;28;20414;-77
2022/05/10 12:27:58;;;;;;;2.50;2.50;;;;;;;;;;5052828;28;20414;-77
2022/05/10 12:30:32;;;;;;;6.20;2.90;;;;;;;;;;5052820;28;20415;-76
2022/05/10 12:32:58;;;;;;;3.10;2.90;;;;;;;;;;5053222;28;20463;-77
2022/05/10 12:35:30;;;;;;;3.10;2.70;;;;;;;;;;5052747;28;20470;-76
2022/05/10 12:37:59;;;;;;;2.87;2.77;;;;;;;;;;5053109;28;20410;-75
2022/05/10 12:40:43;;;;;;;3.23;3.13;;;;;;;;;;5052821;28;20422;-74
2022/05/10 12:43:19;;;;;;;3.10;2.93;;;;;;;;;;5051665;28;20403;-76
2022/05/10 12:45:59;;;;;;;4.07;2.80;;;;;;;;;;5052381;28;20492;-76
2022/05/10 12:48:44;;;;;;;3.83;3.63;;;;;;;;;;5053080;28;20414;-75
2022/05/10 12:51:28;;;;;;;2.53;2.50;;;;;;;;;;5056708;28;20474;-74
2022/05/10 12:53:57;;;;;;;3.40;3.20;;;;;;;;;;5056944;28;20816;-77
2022/05/10 12:56:30;;;;;;;3.90;3.77;;;;;;;;;;5056832;28;20437;-74
2022/05/10 12:59:06;;;;;;;5.30;3.93;;;;;;;;;;5057188;28;20422;-73
2022/05/10 13:01:33;;;;;;;3.80;3.70;;;;;;;;;;5056862;28;20439;-78
2022/05/10 13:04:02;;;;;;;3.40;3.30;;;;;;;;;;5057611;28;20434;-78
2022/05/10 13:06:33;;;;;;;3.63;3.40;;;;;;;;;;5056876;28;20410;-74
2022/05/10 13:08:59;;;;;;;2.90;2.83;;;;;;;;;;5056970;28;20528;-75
2022/05/10 13:11:26;;;;;;;3.17;3.07;;;;;;;;;;5056633;28;20442;-76
2022/05/10 13:13:53;;;;;;;2.97;2.90;;;;;;;;;;5056566;28;20666;-75
2022/05/10 13:16:23;;;;;;;4.00;3.70;;;;;;;;;;5057136;28;20445;-77
2022/05/10 13:18:53;;;;;;;5.17;3.70;;;;;;;;;;5056494;28;20410;-75
2022/05/10 13:21:25;;;;;;;2.20;2.20;;;;;;;;;;5056449;28;20453;-77
2022/05/10 13:23:51;;;;;;;2.97;2.77;;;;;;;;;;5056742;28;20418;-77
2022/05/10 13:26:17;;;;;;;5.23;2.57;;;;;;;;;;5056643;28;20472;-76
2022/05/10 13:28:51;;;;;;;3.20;3.10;;;;;;;;;;5056418;28;20497;-77
2022/05/10 13:31:19;;;;;;;3.10;3.00;;;;;;;;;;5056957;28;20453;-79
2022/05/10 13:33:45;;;;;;;2.70;2.63;;;;;;;;;;5056177;28;20454;-79
2022/05/10 13:36:12;;;;;;;3.20;3.07;;;;;;;;;;5056380;28;21001;-78
2022/05/10 13:38:42;;;;;;;2.77;2.67;;;;;;;;;;5056402;28;20517;-78
2022/05/10 13:41:10;;;;;;;2.57;2.57;;;;;;;;;;5056428;28;20395;-77
2022/05/10 13:43:47;;;;;;;3.07;2.97;;;;;;;;;;5056335;28;20418;-78
2022/05/10 13:46:26;;;;;;;3.77;3.63;;;;;;;;;;5056706;28;20451;-77
2022/05/10 13:48:54;;;;;;;3.40;3.40;;;;;;;;;;5056047;28;20417;-73
2022/05/10 13:51:22;;;;;;;3.40;3.20;;;;;;;;;;5055851;28;20911;-74
2022/05/10 13:54:05;;;;;;;3.57;3.30;;;;;;;;;;5056145;28;20484;-73
2022/05/10 13:56:36;;;;;;;6.23;5.80;;;;;;;;;;5055980;28;20414;-77
2022/05/10 13:59:02;;;;;;;3.40;3.20;;;;;;;;;;5056298;28;20564;-79
2022/05/10 14:01:35;;;;;;;5.43;3.20;;;;;;;;;;5055201;28;20918;-79
2022/05/10 14:04:01;;;;;;;3.30;3.10;;;;;;;;;;5055876;28;20413;-78
2022/05/10 14:06:29;;;;;;;3.10;2.90;;;;;;;;;;5055881;28;20427;-74
2022/05/10 14:08:56;;;;;;;2.50;2.30;;;;;;;;;;5055783;28;20484;-74
2022/05/10 14:11:22;;;;;;;2.60;2.60;;;;;;;;;;5055748;28;20442;-73
2022/05/10 14:13:51;;;;;;;2.93;2.93;;;;;;;;;;5054261;28;20511;-77
2022/05/10 14:16:29;;;;;;;2.07;2.07;;;;;;;;;;5054117;28;20434;-77
2022/05/10 14:18:57;;;;;;;2.90;2.17;;;;;;;;;;5055415;28;20432;-77
2022/05/10 14:21:25;;;;;;;3.07;2.50;;;;;;;;;;5055619;28;20414;-78
2022/05/10 14:23:52;;;;;;;2.17;2.17;;;;;;;;;;5055833;28;20415;-77
2022/05/10 14:26:32;;;;;;;2.10;2.00;;;;;;;;;;5055494;28;20414;-75
2022/05/10 14:29:07;;;;;;;2.53;2.43;;;;;;;;;;5054995;28;20848;-75
2022/05/10 14:31:38;;;;;;;2.63;2.53;;;;;;;;;;5055500;28;20391;-74
2022/05/10 14:34:04;;;;;;;2.50;2.40;;;;;;;;;;5055310;28;20512;-79
2022/05/10 14:36:35;;;;;;;1.50;1.50;;;;;;;;;;5055305;28;20426;-78
2022/05/10 14:39:01;;;;;;;1.50;1.50;;;;;;;;;;5055029;28;20875;-76
2022/05/10 14:41:32;;;;;;;9.47;2.30;;;;;;;;;;5055299;28;20429;-74
2022/05/10 14:43:58;;;;;;;2.10;2.00;;;;;;;;;;5054917;28;20502;-73
2022/05/10 14:46:32;;;;;;;3.00;3.00;;;;;;;;;;5054734;28;20766;-79
2022/05/10 14:49:00;;;;;;;1.90;1.90;;;;;;;;;;5055065;28;20422;-74
2022/05/10 14:51:44;;;;;;;2.37;2.20;;;;;;;;;;5054782;28;20470;-77
2022/05/10 14:54:11;;;;;;;2.67;2.57;;;;;;;;;;5054673;28;20535;-74
2022/05/10 14:56:49;;;;;;;2.30;2.20;;;;;;;;;;5054896;28;20430;-78
2022/05/10 14:59:21;;;;;;;1.97;1.97;;;;;;;;;;5054882;28;20402;-78
2022/05/10 15:01:47;;;;;;;8.57;2.27;;;;;;;;;;5054757;28;20879;-77
2022/05/10 15:04:29;;;;;;;5.93;2.80;;;;;;;;;;5054925;28;20414;-74
2022/05/10 15:06:55;;;;;;;5.20;4.03;;;;;;;;;;5054718;28;20406;-77
2022/05/10 15:09:21;;;;;;;3.83;2.23;;;;;;;;;;5054695;28;20422;-78
2022/05/10 15:14:32;;;;;;;3.47;1.70;;;;;;;;;;5054299;28;20519;-77
2022/05/10 15:16:59;;;;;;;6.43;1.83;;;;;;;;;;5054615;28;20415;-77
2022/05/10 15:19:25;;;;;;;6.00;2.00;;;;;;;;;;5054218;28;20780;-78
2022/05/10 15:21:51;;;;;;;2.90;1.60;;;;;;;;;;5054706;28;20406;-75
2022/05/10 15:24:17;;;;;;;2.77;2.23;;;;;;;;;;5054553;28;20459;-73
2022/05/10 15:26:54;;;;;;;2.07;1.97;;;;;;;;;;5054295;28;20483;-76